Time;durP1;ratioP1;P1;durP2;ratioP2;P2;SDS_P1;SDS_P2;PMS_P1;PMS_P2;Temp;Humidity;BMP_temperature;BMP_pressure;BME280_temperature;BME280_humidity;BME280_pressure;Samples;Min_cycle;Max_cycle;Signal;HPM_P1;HPM_P2
2023/09/21 00:01:21;;;;;;;5.80;3.50;;;;;;;17.12;90.77;97661.48;106641;1270;23277;-83
2023/09/21 00:03:49;;;;;;;5.60;4.00;;;;;;;17.19;90.85;97660.55;106445;1285;22540;-83
2023/09/21 00:06:17;;;;;;;6.60;4.30;;;;;;;17.18;89.88;97662.40;106507;1285;22596;-85
2023/09/21 00:08:48;;;;;;;5.00;3.50;;;;;;;17.09;90.47;97661.23;106434;1284;22588;-83
2023/09/21 00:11:18;;;;;;;8.00;4.40;;;;;;;17.11;90.64;97660.96;106356;1273;22639;-83
2023/09/21 00:13:46;;;;;;;7.30;4.50;;;;;;;17.12;89.88;97654.92;106550;1270;22648;-82
2023/09/21 00:16:16;;;;;;;5.90;3.70;;;;;;;16.95;89.19;97653.84;106482;1285;22603;-83
2023/09/21 00:18:45;;;;;;;7.00;3.80;;;;;;;16.84;90.07;97647.53;106545;1273;22548;-83
2023/09/21 00:21:14;;;;;;;6.00;3.80;;;;;;;16.90;91.27;97650.27;106526;1285;24394;-83
2023/09/21 00:23:44;;;;;;;7.10;4.00;;;;;;;16.92;91.00;97645.35;106712;1282;22534;-83
2023/09/21 00:26:14;;;;;;;5.70;4.50;;;;;;;16.98;90.61;97642.32;106558;1270;22594;-83
2023/09/21 00:28:46;;;;;;;5.80;3.50;;;;;;;16.97;90.06;97642.78;106577;1273;25396;-83
2023/09/21 00:31:15;;;;;;;5.70;4.20;;;;;;;16.97;90.82;97637.81;106333;1285;192385;-84
2023/09/21 00:33:43;;;;;;;5.60;4.60;;;;;;;17.00;90.02;97640.37;106581;1273;22656;-83
2023/09/21 00:36:16;;;;;;;10.30;4.80;;;;;;;16.89;89.98;97639.36;106438;1272;25307;-83
2023/09/21 00:38:46;;;;;;;9.50;4.90;;;;;;;16.75;90.25;97639.66;106529;1285;22649;-83
2023/09/21 00:41:17;;;;;;;6.70;4.20;;;;;;;16.78;91.31;97637.81;106555;1279;22650;-82
2023/09/21 00:43:46;;;;;;;7.30;5.00;;;;;;;16.86;91.19;97635.63;106599;1270;22562;-82
2023/09/21 00:46:14;;;;;;;7.70;5.20;;;;;;;16.91;90.32;97633.74;106608;1274;22492;-82
2023/09/21 00:48:42;;;;;;;9.40;5.00;;;;;;;16.88;89.82;97627.45;106528;1273;24401;-82
2023/09/21 00:51:14;;;;;;;7.90;5.80;;;;;;;16.75;89.67;97628.17;106496;1285;22537;-82
2023/09/21 00:53:44;;;;;;;9.80;6.70;;;;;;;16.61;90.18;97625.70;106501;1285;23058;-82
2023/09/21 00:56:17;;;;;;;9.10;6.00;;;;;;;16.47;90.47;97627.40;106494;1277;22624;-82
2023/09/21 00:58:53;;;;;;;9.20;6.70;;;;;;;16.41;90.49;97626.45;106565;1270;24259;-82
2023/09/21 01:01:27;;;;;;;9.50;6.50;;;;;;;16.34;90.68;97627.55;106619;1283;22533;-82
2023/09/21 01:03:58;;;;;;;8.00;5.80;;;;;;;16.30;91.12;97626.21;106569;1271;22578;-83
2023/09/21 01:06:27;;;;;;;9.70;5.30;;;;;;;16.26;90.94;97628.95;106518;1270;23807;-82
2023/09/21 01:08:56;;;;;;;9.30;5.90;;;;;;;16.23;91.21;97625.36;106506;1271;25567;-82
2023/09/21 01:11:25;;;;;;;10.20;6.00;;;;;;;16.20;91.56;97621.78;106549;1280;22550;-82
2023/09/21 01:13:53;;;;;;;8.70;4.80;;;;;;;16.20;91.55;97617.38;106508;1285;22782;-82
2023/09/21 01:16:23;;;;;;;8.60;5.30;;;;;;;16.28;92.06;97616.58;106604;1285;24420;-82
2023/09/21 01:18:52;;;;;;;6.80;5.30;;;;;;;16.32;91.98;97614.00;106600;1283;22821;-82
2023/09/21 01:21:28;;;;;;;6.80;4.80;;;;;;;16.33;92.32;97612.47;106626;1273;22542;-82
2023/09/21 01:23:57;;;;;;;6.10;5.30;;;;;;;16.40;92.64;97607.92;106478;1273;25377;-82
2023/09/21 01:26:25;;;;;;;8.80;5.00;;;;;;;16.41;91.99;97606.02;106549;1267;22590;-82
2023/09/21 01:28:56;;;;;;;7.10;4.80;;;;;;;16.39;92.06;97605.27;106510;1271;22667;-82
2023/09/21 01:31:25;;;;;;;9.00;5.10;;;;;;;16.42;92.21;97602.33;106475;1274;22538;-82
2023/09/21 01:33:53;;;;;;;8.10;4.60;;;;;;;16.46;92.01;97598.55;106465;1271;22540;-81
2023/09/21 01:36:23;;;;;;;6.70;5.00;;;;;;;16.45;92.11;97591.85;106440;1274;22649;-80
2023/09/21 01:38:52;;;;;;;8.30;4.50;;;;;;;16.40;92.10;97591.90;106494;1285;22628;-81
2023/09/21 01:41:21;;;;;;;11.90;5.30;;;;;;;16.32;92.09;97590.67;106567;1285;22639;-82
2023/09/21 01:43:49;;;;;;;8.00;5.30;;;;;;;16.31;92.40;97588.90;106507;1285;22651;-81
2023/09/21 01:46:22;;;;;;;5.10;4.20;;;;;;;16.30;92.14;97590.32;106696;1285;25507;-83
2023/09/21 01:48:51;;;;;;;9.00;4.90;;;;;;;16.34;92.50;97588.89;107341;1285;25282;-82
2023/09/21 01:51:20;;;;;;;6.20;4.80;;;;;;;16.39;92.47;97585.59;107045;1284;22532;-81
2023/09/21 01:53:49;;;;;;;8.30;4.90;;;;;;;16.39;92.39;97582.96;107180;1271;25247;-80
2023/09/21 01:56:18;;;;;;;10.40;5.20;;;;;;;16.34;92.45;97582.59;106577;1278;22564;-81
2023/09/21 01:58:47;;;;;;;8.20;4.60;;;;;;;16.33;92.55;97583.57;106454;1285;22659;-81
2023/09/21 02:01:15;;;;;;;7.30;4.80;;;;;;;16.41;93.00;97582.33;106520;1273;22649;-81
2023/09/21 02:03:44;;;;;;;6.60;4.70;;;;;;;16.46;92.66;97583.08;106616;1283;22591;-81
2023/09/21 02:06:13;;;;;;;9.60;5.20;;;;;;;16.46;92.47;97581.63;106571;1285;22572;-82
2023/09/21 02:08:41;;;;;;;5.80;4.70;;;;;;;16.46;92.50;97575.95;106463;1285;22541;-82
2023/09/21 02:11:13;;;;;;;7.40;4.70;;;;;;;16.46;93.11;97575.23;106528;1285;24217;-82
2023/09/21 02:13:42;;;;;;;7.50;4.90;;;;;;;16.56;92.76;97571.41;106535;1273;25084;-82
2023/09/21 02:16:10;;;;;;;7.90;4.60;;;;;;;16.60;92.24;97569.02;106460;1270;24395;-81
2023/09/21 02:18:38;;;;;;;7.80;4.60;;;;;;;16.57;92.12;97567.09;106465;1285;25533;-82
2023/09/21 02:21:08;;;;;;;5.90;4.40;;;;;;;16.53;92.45;97565.64;106378;1270;22647;-83
2023/09/21 02:23:38;;;;;;;6.70;4.40;;;;;;;16.52;92.15;97567.34;106427;1270;22603;-82
2023/09/21 02:26:09;;;;;;;8.00;5.00;;;;;;;16.48;92.23;97565.52;106539;1274;22790;-82
2023/09/21 02:28:38;;;;;;;8.50;4.40;;;;;;;16.46;92.06;97560.55;106518;1285;25309;-82
2023/09/21 02:31:10;;;;;;;6.90;4.90;;;;;;;16.43;92.04;97558.98;106575;1285;22553;-82
2023/09/21 02:33:42;;;;;;;7.10;5.00;;;;;;;16.42;91.94;97555.55;106506;1285;22604;-82
2023/09/21 02:36:13;;;;;;;6.30;4.10;;;;;;;16.44;92.13;97556.77;106511;1269;25351;-82
2023/09/21 02:38:41;;;;;;;8.10;4.60;;;;;;;16.47;92.35;97555.15;106597;1270;25499;-83
2023/09/21 02:41:35;;;;;;;6.10;4.00;;;;;;;16.54;92.38;97555.03;106479;1264;22747;-82
2023/09/21 02:44:04;;;;;;;7.90;4.50;;;;;;;16.63;92.40;97552.39;106573;1285;24381;-82
2023/09/21 02:46:32;;;;;;;9.30;4.10;;;;;;;16.61;91.72;97552.33;106549;1278;22546;-81
2023/09/21 02:49:00;;;;;;;6.20;3.80;;;;;;;16.65;92.45;97554.95;106525;1274;24384;-81
2023/09/21 02:51:28;;;;;;;9.00;3.90;;;;;;;16.71;92.01;97553.17;106446;1271;25305;-81
2023/09/21 02:53:59;;;;;;;6.40;4.40;;;;;;;16.78;91.98;97556.50;106457;1285;24321;-81
2023/09/21 02:56:28;;;;;;;7.30;3.30;;;;;;;16.75;91.26;97551.58;106681;1285;22563;-82
2023/09/21 02:58:56;;;;;;;8.60;4.60;;;;;;;16.65;91.24;97546.39;106449;1282;22786;-82
2023/09/21 03:01:25;;;;;;;6.40;4.20;;;;;;;16.56;91.16;97548.55;106459;1285;23007;-82
2023/09/21 03:03:53;;;;;;;4.80;3.60;;;;;;;16.46;91.24;97544.45;106458;1271;22646;-81
2023/09/21 03:06:22;;;;;;;5.60;3.60;;;;;;;16.45;91.81;97544.91;106496;1273;25415;-82
2023/09/21 03:08:51;;;;;;;7.40;4.30;;;;;;;16.51;91.86;97542.89;106424;1273;24268;-82
2023/09/21 03:11:19;;;;;;;5.70;3.80;;;;;;;16.53;91.61;97541.77;106532;1270;24282;-82
2023/09/21 03:13:48;;;;;;;6.40;3.90;;;;;;;16.51;91.43;97538.23;106572;1285;24391;-82
2023/09/21 03:16:17;;;;;;;6.20;4.50;;;;;;;16.44;91.29;97536.48;106454;1285;22530;-82
2023/09/21 03:18:47;;;;;;;6.80;4.40;;;;;;;16.35;91.30;97532.42;106546;1270;25951;-82
2023/09/21 03:21:16;;;;;;;6.40;4.10;;;;;;;16.24;91.34;97532.05;106508;1274;23350;-81
2023/09/21 03:23:46;;;;;;;6.50;4.00;;;;;;;16.18;91.49;97532.27;106559;1270;23262;-82
2023/09/21 03:26:15;;;;;;;7.20;4.30;;;;;;;16.12;91.53;97532.31;106515;1271;22741;-81
2023/09/21 03:28:45;;;;;;;6.90;4.60;;;;;;;16.05;91.82;97524.95;106635;1278;23885;-82
2023/09/21 03:31:13;;;;;;;6.60;4.50;;;;;;;16.00;91.98;97530.19;106464;1285;23916;-81
2023/09/21 03:33:41;;;;;;;6.40;4.60;;;;;;;15.97;92.12;97527.52;106453;1285;24415;-81
2023/09/21 03:36:13;;;;;;;5.50;4.20;;;;;;;15.91;92.01;97529.22;106412;1282;22523;-81
2023/09/21 03:38:42;;;;;;;6.60;4.50;;;;;;;15.89;92.31;97533.34;106557;1271;25613;-81
2023/09/21 03:41:10;;;;;;;7.90;4.50;;;;;;;15.88;92.43;97527.87;106574;1274;22544;-81
2023/09/21 03:43:38;;;;;;;8.70;4.40;;;;;;;15.87;92.39;97532.06;106560;1283;22583;-81
2023/09/21 03:46:06;;;;;;;5.00;3.50;;;;;;;15.90;92.55;97529.04;106561;1270;25337;-80
2023/09/21 03:48:35;;;;;;;8.30;4.40;;;;;;;15.89;92.48;97526.67;106486;1285;24554;-81
2023/09/21 03:51:05;;;;;;;7.90;4.90;;;;;;;15.89;92.65;97521.55;106555;1271;24353;-81
2023/09/21 03:53:33;;;;;;;6.40;4.00;;;;;;;15.92;92.63;97522.48;106476;1285;22556;-81
2023/09/21 03:56:01;;;;;;;6.90;4.30;;;;;;;15.93;92.53;97521.42;106513;1285;24389;-82
2023/09/21 03:58:30;;;;;;;5.40;3.70;;;;;;;15.93;92.44;97516.31;106570;1285;22541;-81
2023/09/21 04:01:04;;;;;;;5.90;4.00;;;;;;;15.95;92.56;97516.98;106432;1270;24445;-82
2023/09/21 04:03:33;;;;;;;6.60;4.20;;;;;;;15.97;92.58;97511.75;106552;1282;22669;-82
2023/09/21 04:06:03;;;;;;;7.70;4.10;;;;;;;15.95;92.53;97514.27;106579;1270;24311;-81
2023/09/21 04:08:31;;;;;;;8.20;4.00;;;;;;;15.95;92.41;97511.02;106382;1285;22644;-80
2023/09/21 04:10:59;;;;;;;6.10;4.20;;;;;;;15.97;92.45;97512.23;106479;1267;22585;-82
2023/09/21 04:13:28;;;;;;;7.30;3.90;;;;;;;16.02;92.60;97510.13;106502;1270;22539;-82
2023/09/21 04:15:56;;;;;;;8.00;3.90;;;;;;;16.05;92.39;97503.53;106561;1285;22540;-80
2023/09/21 04:18:24;;;;;;;6.10;4.10;;;;;;;16.06;92.34;97510.08;106552;1285;23900;-82
2023/09/21 04:20:54;;;;;;;8.50;3.70;;;;;;;16.06;92.48;97506.98;106493;1275;22646;-81
2023/09/21 04:23:43;;;;;;;8.10;4.30;;;;;;;16.07;92.03;97505.77;106632;1277;24344;-81
2023/09/21 04:26:13;;;;;;;7.20;4.00;;;;;;;16.03;92.01;97505.19;106512;1285;22733;-81
2023/09/21 04:28:45;;;;;;;5.40;3.10;;;;;;;16.08;92.11;97505.18;106502;1278;22667;-82
2023/09/21 04:31:13;;;;;;;7.30;3.50;;;;;;;16.14;91.78;97503.95;106517;1264;22594;-77
2023/09/21 04:33:42;;;;;;;6.40;3.30;;;;;;;16.12;91.70;97500.55;106465;1285;24219;-76
2023/09/21 04:36:10;;;;;;;5.80;3.30;;;;;;;16.08;91.68;97500.52;106104;1270;25622;-76
2023/09/21 04:38:39;;;;;;;9.10;3.60;;;;;;;16.03;91.61;97499.76;106154;1285;25588;-77
2023/09/21 04:41:15;;;;;;;5.70;3.40;;;;;;;15.99;91.57;97500.57;106135;1263;24260;-77
2023/09/21 04:43:44;;;;;;;5.20;3.60;;;;;;;15.95;91.54;97500.83;106251;1285;22556;-78
2023/09/21 04:46:13;;;;;;;9.70;3.50;;;;;;;15.93;91.52;97498.13;106142;1270;23500;-78
2023/09/21 04:48:41;;;;;;;8.40;3.90;;;;;;;15.92;91.58;97498.59;106236;1271;22954;-78
2023/09/21 04:51:12;;;;;;;7.80;3.80;;;;;;;15.94;91.54;97498.08;106143;1271;24435;-77
2023/09/21 04:53:43;;;;;;;5.80;3.90;;;;;;;15.94;91.68;97498.23;106093;1281;22549;-77
2023/09/21 04:56:11;;;;;;;6.20;5.00;;;;;;;15.94;91.59;97495.82;106095;1275;22517;-76
2023/09/21 04:58:40;;;;;;;6.90;3.80;;;;;;;15.93;91.39;97497.66;106104;1262;25350;-79
2023/09/21 05:01:10;;;;;;;7.40;3.40;;;;;;;15.92;91.50;97500.61;106155;1285;22653;-78
2023/09/21 05:03:40;;;;;;;6.20;3.80;;;;;;;15.93;91.51;97501.71;106550;1285;24315;-80
2023/09/21 05:06:08;;;;;;;7.10;3.60;;;;;;;15.96;91.58;97500.92;106165;1270;22535;-82
2023/09/21 05:08:37;;;;;;;6.60;3.70;;;;;;;16.00;91.69;97496.63;106564;1270;24119;-84
2023/09/21 05:11:05;;;;;;;4.70;3.50;;;;;;;16.03;91.60;97499.06;106632;1282;22983;-83
2023/09/21 05:13:33;;;;;;;5.30;3.60;;;;;;;16.06;91.60;97497.66;106757;1278;22550;-79
2023/09/21 05:16:02;;;;;;;5.60;3.50;;;;;;;16.09;91.41;97494.02;106647;1273;22657;-79
2023/09/21 05:18:30;;;;;;;8.40;3.40;;;;;;;16.11;91.32;97495.00;106738;1285;22921;-76
2023/09/21 05:21:01;;;;;;;6.70;3.30;;;;;;;16.16;91.24;97494.22;106131;1270;23018;-79
2023/09/21 05:23:29;;;;;;;6.50;3.60;;;;;;;16.20;91.26;97496.13;106536;1285;22664;-81
2023/09/21 05:25:57;;;;;;;7.00;3.50;;;;;;;16.24;91.13;97496.62;106650;1270;22642;-80
2023/09/21 05:28:25;;;;;;;7.70;4.30;;;;;;;16.26;91.16;97498.94;107148;1285;22874;-80
2023/09/21 05:30:54;;;;;;;6.00;3.90;;;;;;;16.28;91.02;97498.45;107394;1270;22618;-78
2023/09/21 05:33:23;;;;;;;6.20;3.60;;;;;;;16.31;91.03;97496.52;107200;1271;22548;-79
2023/09/21 05:35:53;;;;;;;6.60;3.60;;;;;;;16.36;90.86;97500.38;106673;1285;25380;-79
2023/09/21 05:38:22;;;;;;;5.70;3.60;;;;;;;16.46;91.50;97503.60;106282;1285;22795;-80
2023/09/21 05:40:50;;;;;;;7.10;3.90;;;;;;;16.65;91.25;97492.98;106522;1285;22745;-80
2023/09/21 05:43:20;;;;;;;7.00;3.70;;;;;;;16.72;90.78;97497.30;106499;1270;23698;-80
2023/09/21 05:45:49;;;;;;;5.00;3.60;;;;;;;16.72;90.50;97497.16;106511;1270;23243;-80
2023/09/21 05:48:19;;;;;;;6.10;3.80;;;;;;;16.73;90.59;97500.27;106557;1285;25351;-80
2023/09/21 05:50:48;;;;;;;6.20;4.20;;;;;;;16.74;90.27;97498.75;106582;1285;25295;-80
2023/09/21 05:53:16;;;;;;;7.20;3.30;;;;;;;16.75;90.16;97496.23;106760;1285;22591;-85
2023/09/21 05:55:44;;;;;;;6.10;3.70;;;;;;;16.84;90.70;97494.78;106875;1278;24052;-86
2023/09/21 05:58:12;;;;;;;5.60;3.50;;;;;;;16.97;90.65;97491.84;106671;1280;25343;-89
2023/09/21 06:00:40;;;;;;;7.40;3.60;;;;;;;17.08;90.36;97493.60;106520;1273;22564;-81
2023/09/21 06:03:08;;;;;;;6.30;3.50;;;;;;;17.17;90.09;97492.80;106511;1274;23152;-81
2023/09/21 06:05:37;;;;;;;7.10;3.70;;;;;;;17.24;89.73;97496.54;106593;1284;25256;-80
2023/09/21 06:08:05;;;;;;;4.80;3.40;;;;;;;17.34;89.54;97499.66;106538;1283;22565;-81
2023/09/21 06:10:35;;;;;;;4.60;3.20;;;;;;;17.42;89.06;97493.70;106480;1270;22575;-81
2023/09/21 06:13:07;;;;;;;7.60;3.90;;;;;;;17.50;89.21;97496.54;106447;1285;23925;-81
2023/09/21 06:15:37;;;;;;;6.80;3.40;;;;;;;17.59;88.82;97490.22;106604;1270;23589;-81
2023/09/21 06:18:05;;;;;;;6.00;3.60;;;;;;;17.67;88.74;97491.31;106591;1285;25385;-81
2023/09/21 06:20:34;;;;;;;4.50;3.20;;;;;;;17.78;88.62;97490.88;106631;1269;22648;-81
2023/09/21 06:23:06;;;;;;;6.60;3.70;;;;;;;17.89;87.88;97492.92;106556;1284;22499;-81
2023/09/21 06:25:35;;;;;;;10.40;3.50;;;;;;;17.97;87.62;97490.68;106590;1284;22673;-80
2023/09/21 06:28:05;;;;;;;4.30;3.20;;;;;;;18.03;87.43;97493.54;106623;1285;25351;-81
2023/09/21 06:30:33;;;;;;;9.00;3.60;;;;;;;18.11;87.52;97489.81;106688;1284;22658;-80
2023/09/21 06:33:01;;;;;;;7.90;3.50;;;;;;;18.19;87.40;97487.31;106668;1283;22541;-81
2023/09/21 06:35:30;;;;;;;5.20;3.60;;;;;;;18.24;87.00;97488.58;106662;1269;22560;-80
2023/09/21 06:37:59;;;;;;;7.60;3.50;;;;;;;18.31;86.64;97490.45;106554;1285;25545;-80
2023/09/21 06:40:28;;;;;;;8.70;3.20;;;;;;;18.39;86.71;97484.52;106552;1271;23934;-80
2023/09/21 06:42:56;;;;;;;8.00;3.50;;;;;;;18.46;86.49;97477.39;106492;1285;24248;-80
2023/09/21 06:45:28;;;;;;;6.00;3.80;;;;;;;18.53;85.57;97482.93;106577;1285;22568;-79
2023/09/21 06:47:56;;;;;;;5.90;3.20;;;;;;;18.59;85.66;97480.39;106635;1284;22548;-81
2023/09/21 06:50:25;;;;;;;5.30;3.60;;;;;;;18.67;85.65;97475.06;106593;1284;22645;-81
2023/09/21 06:52:53;;;;;;;5.70;3.00;;;;;;;18.72;85.32;97476.03;106650;1282;25311;-81
2023/09/21 06:55:21;;;;;;;3.90;3.20;;;;;;;18.80;85.32;97473.38;106639;1285;22553;-81
2023/09/21 06:57:49;;;;;;;4.80;3.30;;;;;;;18.88;85.18;97475.40;106570;1285;25424;-81
2023/09/21 07:00:17;;;;;;;4.40;3.30;;;;;;;18.96;84.85;97474.91;106525;1271;22754;-81
2023/09/21 07:02:46;;;;;;;5.60;3.40;;;;;;;19.01;84.39;97474.37;106565;1285;26643;-80
2023/09/21 07:05:14;;;;;;;9.60;3.50;;;;;;;19.08;84.22;97476.36;106616;1285;22566;-81
2023/09/21 07:07:42;;;;;;;8.90;3.20;;;;;;;19.17;83.83;97479.54;106593;1269;24765;-81
2023/09/21 07:10:11;;;;;;;4.30;3.10;;;;;;;19.26;83.72;97477.97;106543;1274;22675;-81
2023/09/21 07:12:39;;;;;;;6.20;3.30;;;;;;;19.29;83.25;97472.81;106603;1284;22647;-81
2023/09/21 07:15:19;;;;;;;6.60;3.40;;;;;;;19.34;83.27;97480.67;106563;1284;24370;-81
2023/09/21 07:17:47;;;;;;;7.90;2.80;;;;;;;19.42;83.34;97474.64;106490;1285;25446;-81
2023/09/21 07:20:23;;;;;;;6.60;3.20;;;;;;;19.52;82.87;97476.04;106526;1270;24353;-81
2023/09/21 07:22:51;;;;;;;5.30;3.10;;;;;;;19.63;82.81;97475.27;106451;1285;22567;-81
2023/09/21 07:25:19;;;;;;;4.30;2.90;;;;;;;19.71;82.74;97470.27;106490;1285;22667;-81
2023/09/21 07:27:47;;;;;;;5.20;2.80;;;;;;;19.79;82.80;97469.19;106497;1285;22541;-81
2023/09/21 07:30:16;;;;;;;6.00;3.20;;;;;;;19.86;82.64;97461.71;106673;1284;22611;-81
2023/09/21 07:32:44;;;;;;;7.00;3.10;;;;;;;19.96;82.14;97465.59;106560;1285;23269;-81
2023/09/21 07:35:14;;;;;;;4.70;3.40;;;;;;;20.05;82.04;97459.70;106577;1285;25289;-81
2023/09/21 07:37:46;;;;;;;6.40;3.30;;;;;;;20.16;81.93;97460.84;106527;1285;22544;-81
2023/09/21 07:40:14;;;;;;;10.50;3.10;;;;;;;20.27;81.53;97457.30;106611;1271;22571;-81
2023/09/21 07:42:43;;;;;;;7.20;3.30;;;;;;;20.34;81.59;97457.77;106576;1284;25467;-81
2023/09/21 07:45:12;;;;;;;5.20;3.20;;;;;;;20.42;80.76;97455.98;106510;1282;22540;-81
2023/09/21 07:47:40;;;;;;;6.00;3.20;;;;;;;20.49;80.16;97459.10;106547;1274;24045;-81
2023/09/21 07:50:09;;;;;;;9.20;3.30;;;;;;;20.53;79.62;97459.24;106563;1264;22749;-81
2023/09/21 07:52:37;;;;;;;8.40;2.90;;;;;;;20.59;79.51;97454.63;106604;1270;22599;-80
2023/09/21 07:55:05;;;;;;;5.60;3.30;;;;;;;20.67;79.88;97454.86;106487;1285;22621;-80
2023/09/21 07:57:37;;;;;;;5.30;3.30;;;;;;;20.73;79.63;97455.16;106534;1271;25499;-80
2023/09/21 08:00:09;;;;;;;6.00;3.20;;;;;;;20.81;79.65;97455.00;106639;1285;22537;-84
2023/09/21 08:02:38;;;;;;;8.30;3.10;;;;;;;20.88;79.39;97454.29;106621;1272;22661;-84
2023/09/21 08:05:09;;;;;;;9.40;3.80;;;;;;;20.99;79.63;97454.39;106510;1285;22522;-84
2023/09/21 08:07:39;;;;;;;7.50;2.90;;;;;;;21.13;79.76;97450.66;106544;1270;22590;-83
2023/09/21 08:10:10;;;;;;;5.40;3.00;;;;;;;21.25;79.11;97445.59;106656;1270;24234;-83
2023/09/21 08:12:41;;;;;;;5.10;2.90;;;;;;;21.38;78.66;97444.20;106594;1271;22650;-83
2023/09/21 08:15:12;;;;;;;6.80;3.10;;;;;;;21.48;78.62;97440.93;106538;1278;22761;-82
2023/09/21 08:17:40;;;;;;;3.50;2.90;;;;;;;21.59;78.14;97440.52;106591;1271;25528;-83
2023/09/21 08:20:13;;;;;;;5.00;2.90;;;;;;;21.65;77.96;97440.32;106896;1285;22578;-82
2023/09/21 08:22:42;;;;;;;8.60;2.60;;;;;;;21.72;77.78;97440.21;106544;1285;22630;-81
2023/09/21 08:25:10;;;;;;;4.30;2.60;;;;;;;21.82;77.72;97434.61;106423;1284;25242;-82
2023/09/21 08:27:39;;;;;;;6.20;3.00;;;;;;;21.91;77.51;97434.98;106608;1274;24241;-82
2023/09/21 08:30:09;;;;;;;6.50;2.70;;;;;;;21.98;77.08;97430.22;106991;1267;22757;-84
2023/09/21 08:32:39;;;;;;;3.80;2.60;;;;;;;22.05;76.84;97427.20;106772;1267;22723;-82
2023/09/21 08:35:08;;;;;;;5.90;2.90;;;;;;;22.13;76.70;97425.27;106653;1285;22549;-82
2023/09/21 08:37:36;;;;;;;8.50;3.50;;;;;;;22.22;75.87;97424.23;106728;1277;24345;-82
2023/09/21 08:40:06;;;;;;;7.80;2.90;;;;;;;22.31;75.49;97424.02;106609;1274;22675;-83
2023/09/21 08:42:36;;;;;;;6.70;2.90;;;;;;;22.36;75.13;97421.30;106213;1285;24402;-82
2023/09/21 08:45:09;;;;;;;6.60;2.80;;;;;;;22.39;75.08;97416.45;106649;1274;22537;-82
2023/09/21 08:47:39;;;;;;;5.00;2.70;;;;;;;22.43;74.85;97407.36;106595;1282;22686;-83
2023/09/21 08:50:09;;;;;;;4.10;2.90;;;;;;;22.48;74.65;97409.47;106562;1274;22549;-82
2023/09/21 08:52:38;;;;;;;8.50;3.10;;;;;;;22.57;74.50;97410.28;106617;1271;22541;-82
2023/09/21 08:55:06;;;;;;;6.80;2.90;;;;;;;22.60;73.60;97409.27;106545;1270;22540;-82
2023/09/21 08:57:36;;;;;;;6.00;2.90;;;;;;;22.64;73.53;97407.16;106662;1285;22635;-83
2023/09/21 09:00:06;;;;;;;6.50;3.00;;;;;;;22.74;73.69;97409.38;106687;1285;22653;-82
2023/09/21 09:02:35;;;;;;;4.70;3.10;;;;;;;22.83;73.80;97405.52;106727;1285;25412;-82
2023/09/21 09:05:08;;;;;;;6.90;2.80;;;;;;;22.92;73.49;97410.71;106759;1285;22752;-82
2023/09/21 09:07:41;;;;;;;7.30;2.70;;;;;;;22.99;72.98;97407.83;106891;1285;22562;-83
2023/09/21 09:10:13;;;;;;;10.00;3.40;;;;;;;23.03;72.78;97408.07;107521;1284;22530;-83
2023/09/21 09:12:41;;;;;;;4.70;2.70;;;;;;;23.09;72.67;97404.70;107645;1285;22624;-82
2023/09/21 09:15:10;;;;;;;7.90;3.10;;;;;;;23.19;73.21;97403.27;107614;1285;22554;-82
2023/09/21 09:17:40;;;;;;;5.40;2.50;;;;;;;23.29;72.83;97403.81;106656;1284;25352;-82
2023/09/21 09:20:11;;;;;;;10.90;2.90;;;;;;;23.40;72.86;97407.17;106653;1278;23277;-83
2023/09/21 09:22:40;;;;;;;7.90;2.80;;;;;;;23.53;72.66;97403.38;106682;1285;22595;-83
2023/09/21 09:25:11;;;;;;;10.90;3.00;;;;;;;23.69;73.01;97398.63;106608;1273;22732;-83
2023/09/21 09:27:41;;;;;;;10.50;4.10;;;;;;;23.81;71.44;97400.58;106557;1271;25301;-82
2023/09/21 09:30:12;;;;;;;6.40;2.80;;;;;;;23.91;71.78;97402.58;106667;1264;24247;-82
2023/09/21 09:32:41;;;;;;;7.70;3.30;;;;;;;23.98;71.23;97401.38;106585;1278;25353;-82
2023/09/21 09:35:12;;;;;;;10.10;2.50;;;;;;;24.10;70.19;97401.46;106520;1270;25495;-82
2023/09/21 09:37:43;;;;;;;6.70;2.70;;;;;;;24.22;70.03;97399.30;106483;1281;22560;-82
2023/09/21 09:40:18;;;;;;;6.40;2.40;;;;;;;24.37;69.54;97402.91;106665;1271;22624;-82
2023/09/21 09:42:48;;;;;;;4.90;1.90;;;;;;;24.50;69.07;97401.38;106716;1285;22654;-82
2023/09/21 09:45:24;;;;;;;7.10;3.30;;;;;;;24.60;68.46;97399.02;106539;1283;22778;-82
2023/09/21 09:47:57;;;;;;;8.20;2.40;;;;;;;24.69;68.28;97393.75;106549;1270;23021;-82
2023/09/21 09:50:31;;;;;;;9.10;2.60;;;;;;;24.78;66.89;97396.85;106612;1271;22654;-81
2023/09/21 09:53:17;;;;;;;7.00;2.60;;;;;;;24.89;67.41;97398.66;106609;1285;22648;-81
2023/09/21 09:55:47;;;;;;;8.80;2.80;;;;;;;25.00;66.03;97396.13;106544;1285;22562;-82
2023/09/21 09:58:15;;;;;;;9.00;3.30;;;;;;;25.02;65.65;97396.34;106707;1278;22623;-81
2023/09/21 10:00:45;;;;;;;10.40;3.10;;;;;;;25.08;65.80;97388.73;106524;1284;25349;-81
2023/09/21 10:03:14;;;;;;;5.40;2.80;;;;;;;25.14;65.57;97384.60;106629;1273;22582;-83
2023/09/21 10:05:43;;;;;;;7.50;3.90;;;;;;;25.25;65.76;97387.27;106541;1285;25535;-84
2023/09/21 10:08:13;;;;;;;5.10;3.00;;;;;;;25.32;65.35;97385.33;106471;1270;22873;-84
2023/09/21 10:10:47;;;;;;;7.20;3.20;;;;;;;25.35;65.69;97381.19;106568;1270;24508;-82
2023/09/21 10:13:16;;;;;;;7.40;2.90;;;;;;;25.42;64.82;97381.13;106524;1285;23892;-83
2023/09/21 10:15:54;;;;;;;8.10;2.70;;;;;;;25.49;63.51;97380.48;106539;1281;22603;-82
2023/09/21 10:18:35;;;;;;;6.10;2.90;;;;;;;25.58;62.89;97376.37;106592;1280;23340;-83
2023/09/21 10:21:31;;;;;;;7.70;2.70;;;;;;;25.66;62.30;97374.71;106610;1272;22568;-82
2023/09/21 10:24:11;;;;;;;6.00;2.60;;;;;;;25.75;62.05;97371.76;106719;1284;25242;-82
2023/09/21 10:26:49;;;;;;;6.50;2.60;;;;;;;25.83;62.56;97370.03;106567;1285;22613;-81
2023/09/21 10:29:20;;;;;;;6.40;2.50;;;;;;;25.95;61.49;97368.40;106558;1284;25413;-82
2023/09/21 10:32:07;;;;;;;10.10;2.70;;;;;;;26.02;61.30;97368.69;106545;1271;24262;-82
2023/09/21 10:34:48;;;;;;;3.80;2.10;;;;;;;26.09;60.26;97361.67;106539;1285;25429;-82
2023/09/21 10:37:29;;;;;;;5.90;2.60;;;;;;;26.12;60.30;97359.11;106446;1271;22547;-82
2023/09/21 10:39:58;;;;;;;5.80;2.60;;;;;;;26.21;59.89;97355.91;106456;1278;22765;-81
2023/09/21 10:42:33;;;;;;;5.60;2.30;;;;;;;26.28;59.85;97355.33;106539;1270;22521;-82
2023/09/21 10:45:04;;;;;;;7.10;2.80;;;;;;;26.36;58.76;97349.23;106614;1274;22540;-81
2023/09/21 10:47:36;;;;;;;10.00;2.70;;;;;;;26.40;59.00;97343.72;106633;1285;24564;-83
2023/09/21 10:50:06;;;;;;;7.80;3.20;;;;;;;26.52;58.89;97337.08;106625;1285;25602;-83
2023/09/21 10:52:39;;;;;;;6.30;2.40;;;;;;;26.60;58.01;97335.70;106723;1271;22548;-82
2023/09/21 10:55:12;;;;;;;7.30;2.30;;;;;;;26.67;58.37;97333.13;106640;1285;25256;-82
2023/09/21 10:57:44;;;;;;;6.60;2.50;;;;;;;26.74;58.04;97330.02;106589;1271;25290;-82
2023/09/21 11:00:20;;;;;;;7.00;2.30;;;;;;;26.85;58.76;97331.05;106673;1272;24243;-82
2023/09/21 11:02:50;;;;;;;6.20;2.40;;;;;;;26.96;58.40;97325.40;106627;1271;24382;-83
2023/09/21 11:05:21;;;;;;;6.30;2.20;;;;;;;27.07;57.99;97322.05;106674;1285;25494;-82
2023/09/21 11:07:51;;;;;;;6.50;2.50;;;;;;;27.15;57.59;97316.23;106636;1284;24401;-84
2023/09/21 11:10:20;;;;;;;6.30;2.20;;;;;;;27.17;57.45;97317.38;106292;1284;24409;-81
2023/09/21 11:12:49;;;;;;;4.90;2.20;;;;;;;27.18;56.61;97315.48;106650;1271;24259;-81
2023/09/21 11:15:17;;;;;;;9.10;2.80;;;;;;;27.22;56.35;97310.98;106595;1274;22717;-81
2023/09/21 11:17:47;;;;;;;5.80;2.60;;;;;;;27.25;56.48;97309.17;106584;1284;22686;-81
2023/09/21 11:20:20;;;;;;;5.00;2.30;;;;;;;27.34;57.27;97303.48;106675;1272;22534;-81
2023/09/21 11:22:50;;;;;;;8.60;2.70;;;;;;;27.47;56.84;97303.31;106573;1284;22535;-82
2023/09/21 11:25:22;;;;;;;6.10;2.60;;;;;;;27.53;56.22;97298.36;106625;1274;22969;-82
2023/09/21 11:27:51;;;;;;;10.60;3.00;;;;;;;27.57;56.10;97292.50;106587;1285;23493;-82
2023/09/21 11:30:22;;;;;;;7.70;2.30;;;;;;;27.61;56.56;97288.63;106532;1272;22579;-82
2023/09/21 11:32:54;;;;;;;5.80;2.50;;;;;;;27.65;56.17;97285.14;106590;1285;23777;-82
2023/09/21 11:35:23;;;;;;;7.10;2.90;;;;;;;27.73;55.33;97275.19;106568;1271;22534;-82
2023/09/21 11:37:52;;;;;;;8.50;2.50;;;;;;;27.76;55.36;97278.13;106576;1285;22617;-82